createdAt,value
2017-07-14T00:01:03.388Z,42.10
2017-07-14T00:03:30.909Z,42.10
2017-07-14T00:05:58.445Z,42.10
2017-07-14T00:08:25.976Z,42.20
2017-07-14T00:10:53.600Z,42.30
2017-07-14T00:13:21.120Z,42.20
2017-07-14T00:15:48.649Z,42.30
2017-07-14T00:18:16.179Z,42.10
2017-07-14T00:20:43.804Z,42.20
2017-07-14T00:23:11.328Z,42.20
2017-07-14T00:25:38.881Z,42.20
2017-07-14T00:28:06.397Z,42.20
2017-07-14T00:30:33.961Z,42.20
2017-07-14T00:33:01.500Z,42.30
2017-07-14T00:35:29.792Z,42.20
2017-07-14T00:37:58.119Z,42.20
2017-07-14T00:40:25.652Z,42.10
2017-07-14T00:42:53.208Z,42.30
2017-07-14T00:45:20.744Z,42.30
2017-07-14T00:47:49.059Z,42.30
2017-07-14T00:50:16.594Z,42.20
2017-07-14T00:52:44.180Z,42.20
2017-07-14T00:55:11.709Z,42.20
2017-07-14T00:57:39.243Z,42.20
2017-07-14T01:00:06.823Z,42.10
2017-07-14T01:02:34.337Z,42.10
2017-07-14T01:05:01.892Z,42.10
2017-07-14T01:07:29.476Z,42.20
2017-07-14T01:09:57.032Z,42.10
2017-07-14T01:12:24.599Z,42.20
2017-07-14T01:14:52.135Z,42.20
2017-07-14T01:17:19.651Z,42.20
2017-07-14T01:19:47.192Z,42.20
2017-07-14T01:22:14.735Z,42.30
2017-07-14T01:24:42.292Z,42.10
2017-07-14T01:27:09.836Z,42.20
2017-07-14T01:29:37.377Z,42.20
2017-07-14T01:32:04.908Z,42.20
2017-07-14T01:34:32.472Z,42.10
2017-07-14T01:36:59.988Z,42.20
2017-07-14T01:39:27.496Z,42.20
2017-07-14T01:41:55.039Z,42.10
2017-07-14T01:44:22.545Z,42.20
2017-07-14T01:46:50.076Z,42.00
2017-07-14T01:49:17.587Z,42.10
2017-07-14T01:51:45.888Z,42.20
2017-07-14T01:54:13.399Z,42.00
2017-07-14T01:56:40.959Z,42.10
2017-07-14T01:59:08.489Z,42.10
2017-07-14T02:01:36.048Z,42.00
2017-07-14T02:04:03.561Z,42.10
2017-07-14T02:06:31.112Z,42.10
2017-07-14T02:08:59.399Z,42.20
2017-07-14T02:11:27.713Z,42.10
2017-07-14T02:13:56.028Z,42.10
2017-07-14T02:16:23.542Z,42.00
2017-07-14T02:18:51.096Z,42.00
2017-07-14T02:21:18.621Z,42.00
2017-07-14T02:23:46.160Z,42.00
2017-07-14T02:26:13.673Z,42.00
2017-07-14T02:28:41.223Z,42.00
2017-07-14T02:31:08.736Z,42.00
2017-07-14T02:33:36.284Z,42.00
2017-07-14T02:36:03.804Z,41.90
2017-07-14T02:38:31.373Z,42.00
2017-07-14T02:40:58.973Z,42.00
2017-07-14T02:43:26.530Z,42.00
2017-07-14T02:45:54.053Z,42.00
2017-07-14T02:48:21.603Z,42.00
2017-07-14T02:50:49.116Z,42.00
2017-07-14T02:53:16.629Z,42.00
2017-07-14T02:55:44.183Z,41.90
2017-07-14T02:58:11.696Z,41.90
2017-07-14T03:00:39.238Z,42.00
2017-07-14T03:03:06.781Z,41.90
2017-07-14T03:05:34.318Z,41.90
2017-07-14T03:08:01.844Z,41.90
2017-07-14T03:10:29.382Z,42.00
2017-07-14T03:12:56.893Z,41.90
2017-07-14T03:15:24.428Z,41.80
2017-07-14T03:17:52.709Z,42.50
2017-07-14T03:20:21.032Z,41.80
2017-07-14T03:22:48.569Z,41.80
2017-07-14T03:25:16.139Z,41.90
2017-07-14T03:27:43.677Z,41.90
2017-07-14T03:30:11.216Z,41.90
2017-07-14T03:32:39.536Z,41.90
2017-07-14T03:35:07.066Z,41.80
2017-07-14T03:37:34.608Z,41.90
2017-07-14T03:40:02.893Z,41.90
2017-07-14T03:42:31.190Z,41.80
2017-07-14T03:44:58.709Z,42.40
2017-07-14T03:47:26.236Z,41.90
2017-07-14T03:49:53.793Z,41.80
2017-07-14T03:52:21.353Z,41.90
2017-07-14T03:54:48.909Z,41.90
2017-07-14T03:57:16.456Z,41.80
2017-07-14T03:59:43.984Z,41.80
2017-07-14T04:02:11.501Z,41.80
2017-07-14T04:04:39.036Z,42.40
2017-07-14T04:07:06.556Z,41.90
2017-07-14T04:09:34.109Z,41.80
2017-07-14T04:12:01.624Z,41.90
2017-07-14T04:14:29.206Z,41.80
2017-07-14T04:16:56.759Z,41.80
2017-07-14T04:19:24.346Z,41.70
2017-07-14T04:21:51.883Z,41.80
2017-07-14T04:24:19.397Z,41.80
2017-07-14T04:26:46.956Z,41.80
2017-07-14T04:29:14.480Z,41.80
2017-07-14T04:31:42.076Z,41.90
2017-07-14T04:34:09.581Z,41.80
2017-07-14T04:36:37.115Z,41.70
2017-07-14T04:39:04.629Z,41.80
2017-07-14T04:41:32.932Z,41.80
2017-07-14T04:44:00.478Z,41.70
2017-07-14T04:46:28.024Z,41.80
2017-07-14T04:48:56.329Z,41.80
2017-07-14T04:51:23.843Z,41.70
2017-07-14T04:53:51.376Z,41.60
2017-07-14T04:56:18.892Z,41.60
2017-07-14T04:58:46.538Z,41.70
2017-07-14T05:01:14.844Z,41.60
2017-07-14T05:03:42.380Z,41.70
2017-07-14T05:06:09.886Z,41.70
2017-07-14T05:08:37.431Z,41.60
2017-07-14T05:11:04.940Z,41.60
2017-07-14T05:13:33.296Z,41.60
2017-07-14T05:16:00.808Z,41.70
2017-07-14T05:18:28.364Z,41.60
2017-07-14T05:20:55.920Z,41.60
2017-07-14T05:23:23.465Z,42.30
2017-07-14T05:25:51.009Z,41.60
2017-07-14T05:28:19.325Z,42.20
2017-07-14T05:30:46.866Z,41.60
2017-07-14T05:33:14.376Z,41.60
2017-07-14T05:35:41.940Z,41.50
2017-07-14T05:38:09.481Z,41.40
2017-07-14T05:40:37.055Z,41.60
2017-07-14T05:43:04.597Z,41.50
2017-07-14T05:45:32.133Z,41.50
2017-07-14T05:47:59.677Z,41.50
2017-07-14T05:50:27.249Z,41.40
2017-07-14T05:52:54.784Z,41.50
2017-07-14T05:55:22.439Z,41.50
2017-07-14T05:57:50.005Z,41.50
2017-07-14T06:00:17.515Z,41.40
2017-07-14T06:02:45.098Z,41.50
2017-07-14T06:05:12.641Z,41.60
2017-07-14T06:07:41.010Z,41.70
2017-07-14T06:10:09.291Z,41.80
2017-07-14T06:12:36.944Z,41.70
2017-07-14T06:15:04.455Z,41.80
2017-07-14T06:17:32.020Z,42.40
2017-07-14T06:19:59.571Z,41.80
2017-07-14T06:22:27.149Z,41.70
2017-07-14T06:24:54.694Z,41.70
2017-07-14T06:27:22.232Z,41.60
2017-07-14T06:29:49.757Z,41.70
2017-07-14T06:32:17.308Z,41.70
2017-07-14T06:34:49.168Z,41.60
2017-07-14T06:37:16.744Z,41.60
2017-07-14T06:39:44.277Z,41.50
2017-07-14T06:42:12.573Z,41.50
2017-07-14T06:44:40.143Z,41.50
2017-07-14T06:47:07.685Z,41.30
2017-07-14T06:49:35.322Z,41.20
2017-07-14T06:52:02.878Z,41.10
2017-07-14T06:54:31.207Z,41.10
2017-07-14T06:56:58.744Z,41.00
2017-07-14T06:59:26.302Z,41.00
2017-07-14T07:01:53.840Z,40.80
2017-07-14T07:04:21.404Z,40.80
2017-07-14T07:06:49.029Z,40.80
2017-07-14T07:09:16.565Z,40.90
2017-07-14T07:11:44.112Z,40.80
2017-07-14T07:14:11.684Z,40.70
2017-07-14T07:16:39.206Z,40.70
2017-07-14T07:19:06.725Z,40.70
2017-07-14T07:21:34.260Z,40.70
2017-07-14T07:24:02.780Z,40.50
2017-07-14T07:26:30.328Z,40.50
2017-07-14T07:28:57.885Z,40.50
2017-07-14T07:31:25.429Z,40.50
2017-07-14T07:33:52.957Z,40.50
2017-07-14T07:36:20.614Z,40.30
2017-07-14T07:38:48.178Z,40.20
2017-07-14T07:41:15.687Z,40.20
2017-07-14T07:43:43.261Z,40.20
2017-07-14T07:46:16.392Z,40.10
2017-07-14T07:48:49.616Z,40.00
2017-07-14T07:51:17.156Z,39.80
2017-07-14T07:53:44.725Z,39.90
2017-07-14T07:56:12.282Z,40.10
2017-07-14T07:58:39.846Z,40.40
2017-07-14T08:01:07.376Z,40.40
2017-07-14T08:03:35.693Z,40.80
2017-07-14T08:06:03.224Z,40.70
2017-07-14T08:08:30.950Z,40.60
2017-07-14T08:10:58.532Z,40.50
2017-07-14T08:13:26.196Z,40.30
2017-07-14T08:15:54.789Z,40.30
2017-07-14T08:18:22.353Z,40.20
2017-07-14T08:20:49.933Z,40.00
2017-07-14T08:23:17.482Z,39.90
2017-07-14T08:25:45.021Z,39.80
2017-07-14T08:28:12.608Z,39.70
2017-07-14T08:30:40.149Z,39.50
2017-07-14T08:33:07.702Z,39.30
2017-07-14T08:35:35.517Z,39.20
2017-07-14T08:38:03.124Z,38.90
2017-07-14T08:40:30.757Z,38.90
2017-07-14T08:42:59.076Z,38.60
2017-07-14T08:45:26.740Z,38.60
2017-07-14T08:47:55.084Z,38.30
2017-07-14T08:50:22.644Z,38.20
2017-07-14T08:52:50.960Z,38.00
2017-07-14T08:55:18.560Z,38.00
2017-07-14T08:57:46.109Z,37.80
2017-07-14T09:00:13.688Z,37.80
2017-07-14T09:02:41.996Z,37.80
2017-07-14T09:05:09.552Z,37.70
2017-07-14T09:07:37.157Z,37.50
2017-07-14T09:10:04.675Z,37.20
2017-07-14T09:12:32.268Z,37.00
2017-07-14T09:14:59.834Z,36.70
2017-07-14T09:17:27.384Z,36.50
2017-07-14T09:19:54.944Z,36.70
2017-07-14T09:22:22.468Z,36.90
2017-07-14T09:24:50.032Z,37.10
2017-07-14T09:27:17.597Z,37.40
2017-07-14T09:29:45.108Z,37.10
2017-07-14T09:32:12.645Z,36.70
2017-07-14T09:34:40.199Z,36.30
2017-07-14T09:37:07.724Z,35.90
2017-07-14T09:39:35.260Z,35.60
2017-07-14T09:42:02.904Z,35.50
2017-07-14T09:44:30.454Z,35.10
2017-07-14T09:46:58.026Z,34.80
2017-07-14T09:49:25.620Z,34.80
2017-07-14T09:51:53.148Z,35.20
2017-07-14T09:54:20.814Z,35.20
2017-07-14T09:56:48.407Z,35.00
2017-07-14T09:59:15.925Z,34.80
2017-07-14T10:01:43.500Z,34.60
2017-07-14T10:04:11.112Z,34.60
2017-07-14T10:06:38.672Z,34.40
2017-07-14T10:09:06.208Z,34.20
2017-07-14T10:11:33.768Z,34.20
2017-07-14T10:14:01.279Z,34.20
2017-07-14T10:16:28.809Z,34.10
2017-07-14T10:18:56.589Z,33.90
2017-07-14T10:21:24.133Z,33.70
2017-07-14T10:23:51.655Z,33.40
2017-07-14T10:26:19.205Z,33.50
2017-07-14T10:28:46.730Z,33.90
2017-07-14T10:31:14.249Z,33.80
2017-07-14T10:33:41.824Z,34.00
2017-07-14T10:36:09.361Z,33.70
2017-07-14T10:38:36.895Z,33.60
2017-07-14T10:41:04.428Z,33.30
2017-07-14T10:43:32.012Z,33.20
2017-07-14T10:46:00.310Z,32.50
2017-07-14T10:48:27.848Z,32.50
2017-07-14T10:50:55.365Z,32.90
2017-07-14T10:53:22.942Z,32.40
2017-07-14T10:55:50.480Z,32.00
2017-07-14T10:58:18.044Z,31.70
2017-07-14T11:00:45.592Z,31.70
2017-07-14T11:03:13.138Z,31.70
2017-07-14T11:05:40.649Z,31.40
2017-07-14T11:08:08.196Z,31.00
2017-07-14T11:10:35.749Z,30.80
2017-07-14T11:13:03.292Z,30.70
2017-07-14T11:15:30.816Z,30.40
2017-07-14T11:17:58.394Z,30.40
2017-07-14T11:20:25.908Z,30.90
2017-07-14T11:22:53.419Z,30.40
2017-07-14T11:25:20.957Z,30.00
2017-07-14T11:27:48.506Z,30.00
2017-07-14T11:30:16.058Z,30.00
2017-07-14T11:32:44.364Z,30.00
2017-07-14T11:35:11.910Z,30.00
2017-07-14T11:37:39.427Z,30.00
2017-07-14T11:40:06.965Z,30.20
2017-07-14T11:42:34.504Z,30.30
2017-07-14T11:45:02.055Z,29.90
2017-07-14T11:47:29.592Z,26.10
2017-07-14T11:49:57.886Z,25.80
2017-07-14T11:52:25.416Z,25.80
2017-07-14T11:54:52.956Z,25.70
2017-07-14T11:57:20.466Z,25.50
2017-07-14T11:59:48.039Z,26.20
2017-07-14T12:02:15.584Z,26.00
2017-07-14T12:04:43.120Z,26.20
2017-07-14T12:07:10.660Z,26.50
2017-07-14T12:09:38.224Z,25.90
2017-07-14T12:12:05.759Z,26.20
2017-07-14T12:14:33.302Z,26.30
2017-07-14T12:17:00.821Z,26.40
2017-07-14T12:19:28.356Z,26.50
2017-07-14T12:21:55.907Z,27.00
2017-07-14T12:24:23.480Z,27.90
2017-07-14T12:26:51.016Z,27.50
2017-07-14T12:29:18.554Z,28.40
2017-07-14T12:31:46.100Z,29.40
2017-07-14T12:34:13.651Z,28.80
2017-07-14T12:36:41.173Z,28.60
2017-07-14T12:39:08.757Z,28.90
2017-07-14T12:41:36.296Z,29.60
2017-07-14T12:44:03.812Z,29.30
2017-07-14T12:46:31.377Z,29.40
2017-07-14T12:48:58.928Z,30.00
2017-07-14T12:51:26.467Z,29.80
2017-07-14T12:53:53.989Z,29.70
2017-07-14T12:56:21.556Z,29.80
2017-07-14T12:58:49.839Z,30.60
2017-07-14T13:01:18.152Z,30.60
2017-07-14T13:03:45.680Z,30.00
2017-07-14T13:06:13.992Z,30.30
2017-07-14T13:08:41.509Z,30.30
2017-07-14T13:11:09.056Z,30.50
2017-07-14T13:13:36.639Z,30.40
2017-07-14T13:16:04.433Z,32.20
2017-07-14T13:18:31.974Z,31.20
2017-07-14T13:20:59.553Z,31.20
2017-07-14T13:23:27.072Z,31.00
2017-07-14T13:25:54.644Z,31.80
2017-07-14T13:28:22.180Z,31.70
2017-07-14T13:30:49.844Z,31.90
2017-07-14T13:33:17.458Z,31.60
2017-07-14T13:35:45.009Z,32.00
2017-07-14T13:38:12.520Z,31.70
2017-07-14T13:40:40.084Z,32.10
2017-07-14T13:43:08.385Z,31.70
2017-07-14T13:45:35.924Z,31.70
2017-07-14T13:48:03.494Z,32.70
2017-07-14T13:50:31.807Z,34.20
2017-07-14T13:52:59.323Z,34.20
2017-07-14T13:55:28.611Z,35.80
2017-07-14T13:57:56.210Z,35.80
2017-07-14T14:00:23.760Z,36.90
2017-07-14T14:02:51.281Z,36.20
2017-07-14T14:05:18.854Z,35.50
2017-07-14T14:07:46.437Z,35.50
2017-07-14T14:10:13.969Z,35.60
2017-07-14T14:12:41.529Z,35.50
2017-07-14T14:15:09.069Z,35.70
2017-07-14T14:17:36.617Z,35.70
2017-07-14T14:20:04.181Z,35.80
2017-07-14T14:22:31.786Z,36.00
2017-07-14T14:25:00.081Z,35.30
2017-07-14T14:27:27.699Z,35.30
2017-07-14T14:29:55.331Z,35.30
2017-07-14T14:32:22.957Z,35.40
2017-07-14T14:34:50.492Z,35.50
2017-07-14T14:37:18.053Z,35.40
2017-07-14T14:39:45.581Z,35.40
2017-07-14T14:42:13.161Z,35.40
2017-07-14T14:44:40.688Z,35.40
2017-07-14T14:47:08.258Z,35.40
2017-07-14T14:49:35.777Z,35.40
2017-07-14T14:52:03.359Z,35.50
2017-07-14T14:54:30.984Z,35.50
2017-07-14T14:56:58.601Z,35.70
2017-07-14T14:59:26.128Z,35.60
2017-07-14T15:01:53.696Z,35.70
2017-07-14T15:04:21.235Z,35.80
2017-07-14T15:06:48.789Z,35.90
2017-07-14T15:09:17.347Z,36.00
2017-07-14T15:11:44.902Z,35.90
2017-07-14T15:14:12.425Z,36.00
2017-07-14T15:16:39.977Z,36.10
2017-07-14T15:19:07.518Z,36.20
2017-07-14T15:21:35.091Z,36.20
2017-07-14T15:24:02.724Z,36.30
2017-07-14T15:26:30.261Z,36.50
2017-07-14T15:28:57.824Z,36.60
2017-07-14T15:31:25.341Z,36.60
2017-07-14T15:33:52.882Z,36.80
2017-07-14T15:36:20.393Z,36.80
2017-07-14T15:38:47.958Z,36.90
2017-07-14T15:41:16.275Z,37.90
2017-07-14T15:43:43.852Z,37.20
2017-07-14T15:46:11.400Z,39.00
2017-07-14T15:48:38.968Z,40.80
2017-07-14T15:51:07.436Z,42.30
2017-07-14T15:53:34.983Z,44.20
2017-07-14T15:56:02.515Z,44.00
2017-07-14T15:58:30.070Z,45.10
2017-07-14T16:00:57.612Z,44.90
2017-07-14T16:03:25.269Z,45.20
2017-07-14T16:05:52.791Z,44.70
2017-07-14T16:08:20.344Z,45.20
2017-07-14T16:10:47.983Z,45.10
2017-07-14T16:13:16.342Z,46.10
2017-07-14T16:15:43.853Z,46.00
2017-07-14T16:18:11.401Z,45.80
2017-07-14T16:20:38.949Z,46.10
2017-07-14T16:23:07.225Z,46.80
2017-07-14T16:25:35.664Z,47.00
2017-07-14T16:28:03.184Z,47.20
2017-07-14T16:30:30.739Z,47.10
2017-07-14T16:32:58.283Z,47.50
2017-07-14T16:35:26.584Z,48.30
2017-07-14T16:37:54.118Z,48.20
2017-07-14T16:40:21.676Z,47.70
2017-07-14T16:42:49.953Z,47.90
2017-07-14T16:45:18.229Z,47.60
2017-07-14T16:47:46.551Z,47.70
2017-07-14T16:50:14.081Z,47.60
2017-07-14T16:52:41.604Z,47.50
2017-07-14T16:55:09.120Z,47.50
2017-07-14T16:57:36.701Z,47.50
2017-07-14T17:00:04.236Z,47.00
2017-07-14T17:02:31.811Z,46.20
2017-07-14T17:04:59.351Z,47.00
2017-07-14T17:07:27.882Z,47.20
2017-07-14T17:09:55.393Z,47.30
2017-07-14T17:12:23.001Z,47.50
2017-07-14T17:14:50.608Z,47.70
2017-07-14T17:17:18.116Z,47.60
2017-07-14T17:19:45.656Z,48.30
2017-07-14T17:22:13.215Z,48.20
2017-07-14T17:24:40.777Z,48.10
2017-07-14T17:27:08.326Z,48.20
2017-07-14T17:29:35.876Z,48.80
2017-07-14T17:32:03.395Z,48.10
2017-07-14T17:34:30.978Z,48.60
2017-07-14T17:36:58.486Z,47.50
2017-07-14T17:39:26.026Z,47.80
2017-07-14T17:41:53.639Z,47.60
2017-07-14T17:44:21.152Z,48.20
2017-07-14T17:46:48.696Z,48.10
2017-07-14T17:49:16.285Z,48.50
2017-07-14T17:51:43.841Z,49.10
2017-07-14T17:54:11.372Z,48.30
2017-07-14T17:56:38.974Z,47.80
2017-07-14T17:59:06.492Z,47.90
2017-07-14T18:01:34.005Z,49.00
2017-07-14T18:04:01.569Z,48.50
2017-07-14T18:06:30.794Z,48.20
2017-07-14T18:08:58.377Z,48.20
2017-07-14T18:11:25.940Z,48.00
2017-07-14T18:13:53.497Z,48.20
2017-07-14T18:16:21.029Z,48.50
2017-07-14T18:18:49.337Z,47.30
2017-07-14T18:21:16.853Z,47.30
2017-07-14T18:23:44.404Z,47.60
2017-07-14T18:26:12.688Z,46.90
2017-07-14T18:28:40.216Z,46.90
2017-07-14T18:31:09.159Z,47.10
2017-07-14T18:33:36.947Z,47.00
2017-07-14T18:36:04.513Z,47.00
2017-07-14T18:38:32.060Z,46.00
2017-07-14T18:40:59.588Z,46.30
2017-07-14T18:43:27.111Z,46.20
2017-07-14T18:45:54.682Z,46.20
2017-07-14T18:48:22.224Z,46.30
2017-07-14T18:50:49.806Z,46.70
2017-07-14T18:53:17.354Z,46.80
2017-07-14T18:55:44.865Z,46.50
2017-07-14T18:58:12.433Z,47.30
2017-07-14T19:00:39.981Z,47.30
2017-07-14T19:03:07.518Z,46.20
2017-07-14T19:05:35.058Z,45.60
2017-07-14T19:08:03.384Z,46.70
2017-07-14T19:10:30.920Z,46.60
2017-07-14T19:12:58.437Z,45.90
2017-07-14T19:15:25.977Z,46.80
2017-07-14T19:17:53.509Z,46.80
2017-07-14T19:20:21.090Z,46.10
2017-07-14T19:22:48.624Z,46.10
2017-07-14T19:25:16.144Z,46.60
2017-07-14T19:27:43.660Z,45.70
2017-07-14T19:30:11.221Z,45.90
2017-07-14T19:32:38.740Z,47.00
2017-07-14T19:35:06.288Z,49.00
2017-07-14T19:37:34.564Z,50.30
2017-07-14T19:40:02.844Z,48.70
2017-07-14T19:42:31.153Z,47.40
2017-07-14T19:44:58.677Z,47.40
2017-07-14T19:47:26.232Z,47.10
2017-07-14T19:49:54.567Z,47.30
2017-07-14T19:52:22.124Z,46.40
2017-07-14T19:54:49.637Z,46.40
2017-07-14T19:57:17.960Z,46.00
2017-07-14T19:59:45.477Z,46.00
2017-07-14T20:02:13.016Z,45.70
2017-07-14T20:04:40.522Z,45.70
2017-07-14T20:07:08.064Z,45.80
2017-07-14T20:09:35.640Z,45.90
2017-07-14T20:12:03.168Z,44.90
2017-07-14T20:14:30.759Z,46.20
2017-07-14T20:16:58.297Z,46.40
2017-07-14T20:19:26.597Z,46.70
2017-07-14T20:21:54.208Z,46.60
2017-07-14T20:24:21.773Z,46.80
2017-07-14T20:26:49.320Z,47.00
2017-07-14T20:29:16.863Z,47.20
2017-07-14T20:31:44.400Z,47.60
2017-07-14T20:34:11.954Z,47.50
2017-07-14T20:36:39.514Z,47.00
2017-07-14T20:39:07.801Z,47.70
2017-07-14T20:41:35.340Z,47.60
2017-07-14T20:44:02.857Z,47.90
2017-07-14T20:46:30.416Z,48.20
2017-07-14T20:48:58.564Z,48.00
2017-07-14T20:51:26.104Z,48.40
2017-07-14T20:53:53.637Z,47.80
2017-07-14T20:56:21.181Z,48.10
2017-07-14T20:58:49.128Z,47.90
2017-07-14T21:01:16.696Z,48.10
2017-07-14T21:03:44.223Z,48.30
2017-07-14T21:06:11.744Z,48.50
2017-07-14T21:08:39.289Z,48.60
2017-07-14T21:11:06.814Z,48.30
2017-07-14T21:13:34.396Z,48.30
2017-07-14T21:16:01.909Z,48.90
2017-07-14T21:18:29.481Z,48.20
2017-07-14T21:20:56.993Z,48.10
2017-07-14T21:23:25.320Z,48.50
2017-07-14T21:25:52.832Z,48.40
2017-07-14T21:28:20.388Z,48.90
2017-07-14T21:30:48.680Z,49.20
2017-07-14T21:33:16.236Z,49.20
2017-07-14T21:35:43.797Z,49.30
2017-07-14T21:38:11.364Z,49.00
2017-07-14T21:40:38.907Z,49.80
2017-07-14T21:43:07.220Z,49.70
2017-07-14T21:45:34.781Z,49.70
2017-07-14T21:48:02.399Z,49.60
2017-07-14T21:50:30.715Z,49.70
2017-07-14T21:52:58.328Z,49.70
2017-07-14T21:55:25.905Z,49.90
2017-07-14T21:57:53.461Z,49.50
2017-07-14T22:00:21.035Z,50.10
2017-07-14T22:02:48.579Z,50.10
2017-07-14T22:05:16.128Z,50.00
2017-07-14T22:07:43.676Z,49.90
2017-07-14T22:10:11.190Z,50.50
2017-07-14T22:12:38.735Z,50.10
2017-07-14T22:15:06.272Z,50.50
2017-07-14T22:17:34.581Z,50.30
2017-07-14T22:20:02.091Z,50.30
2017-07-14T22:22:29.655Z,49.80
2017-07-14T22:24:57.958Z,50.90
2017-07-14T22:27:25.501Z,50.80
2017-07-14T22:29:53.025Z,50.20
2017-07-14T22:32:20.580Z,50.30
2017-07-14T22:34:48.195Z,50.00
2017-07-14T22:37:15.736Z,50.40
2017-07-14T22:39:43.286Z,49.50
2017-07-14T22:42:10.825Z,49.00
2017-07-14T22:44:38.417Z,49.10
2017-07-14T22:47:05.979Z,49.00
2017-07-14T22:49:33.588Z,49.00
2017-07-14T22:52:01.202Z,49.00
2017-07-14T22:54:29.501Z,49.90
2017-07-14T22:56:57.032Z,50.40
2017-07-14T22:59:24.587Z,49.20
2017-07-14T23:01:52.324Z,50.00
2017-07-14T23:04:19.932Z,50.00
2017-07-14T23:06:47.517Z,49.30
2017-07-14T23:09:15.076Z,49.20
2017-07-14T23:11:42.607Z,49.40
2017-07-14T23:14:10.933Z,49.30
2017-07-14T23:16:39.494Z,49.30
2017-07-14T23:19:07.018Z,49.60
2017-07-14T23:21:34.541Z,49.10
2017-07-14T23:24:02.092Z,49.30
2017-07-14T23:26:29.781Z,48.90
2017-07-14T23:28:57.902Z,49.10
2017-07-14T23:31:25.556Z,48.80
2017-07-14T23:33:53.601Z,48.90
2017-07-14T23:36:21.938Z,49.60
2017-07-14T23:38:49.494Z,49.50
2017-07-14T23:41:17.060Z,49.30
2017-07-14T23:43:44.639Z,48.90
2017-07-14T23:46:12.188Z,48.90
2017-07-14T23:48:39.847Z,49.10
2017-07-14T23:51:07.402Z,48.70
2017-07-14T23:53:34.953Z,48.80
2017-07-14T23:56:02.464Z,48.80
2017-07-14T23:58:30.023Z,49.00
